createdAt,value
2024-04-14T00:01:41.716Z,2.08
2024-04-14T00:04:08.742Z,3.17
2024-04-14T00:06:35.621Z,2.50
2024-04-14T00:09:02.845Z,2.13
2024-04-14T00:11:29.488Z,1.88
2024-04-14T00:13:56.539Z,2.10
2024-04-14T00:16:23.193Z,1.98
2024-04-14T00:18:50.047Z,1.50
2024-04-14T00:21:16.909Z,2.00
2024-04-14T00:23:43.426Z,2.30
2024-04-14T00:26:10.086Z,1.77
2024-04-14T00:28:37.001Z,1.95
2024-04-14T00:31:03.728Z,2.08
2024-04-14T00:33:32.727Z,2.60
2024-04-14T00:35:59.414Z,2.10
2024-04-14T00:38:25.999Z,2.10
2024-04-14T00:40:52.527Z,2.55
2024-04-14T00:43:19.085Z,2.15
2024-04-14T00:45:45.966Z,2.20
2024-04-14T00:48:13.123Z,2.10
2024-04-14T00:50:40.130Z,1.63
2024-04-14T00:53:06.888Z,1.95
2024-04-14T00:55:33.610Z,2.05
2024-04-14T00:58:00.166Z,2.25
2024-04-14T01:00:27.025Z,2.00
2024-04-14T01:02:56.745Z,2.00
2024-04-14T01:05:23.653Z,1.97
2024-04-14T01:07:51.320Z,2.30
2024-04-14T01:10:18.081Z,1.80
2024-04-14T01:12:44.910Z,1.60
2024-04-14T01:15:12.066Z,2.17
2024-04-14T01:17:38.723Z,2.38
2024-04-14T01:20:05.545Z,1.80
2024-04-14T01:22:32.038Z,1.60
2024-04-14T01:25:05.122Z,1.80
2024-04-14T01:27:31.708Z,1.42
2024-04-14T01:29:58.214Z,1.65
2024-04-14T01:32:24.886Z,1.67
2024-04-14T01:34:51.426Z,1.40
2024-04-14T01:37:18.054Z,1.42
2024-04-14T01:39:44.570Z,1.60
2024-04-14T01:42:11.128Z,1.80
2024-04-14T01:44:37.831Z,1.50
2024-04-14T01:47:04.372Z,1.60
2024-04-14T01:49:30.939Z,1.90
2024-04-14T01:51:57.581Z,1.60
2024-04-14T01:54:24.198Z,1.88
2024-04-14T01:56:50.760Z,1.67
2024-04-14T01:59:17.280Z,1.90
2024-04-14T02:01:43.886Z,1.95
2024-04-14T02:04:10.588Z,2.42
2024-04-14T02:06:37.334Z,2.00
2024-04-14T02:09:03.920Z,1.90
2024-04-14T02:11:30.494Z,2.10
2024-04-14T02:13:58.313Z,2.00
2024-04-14T02:16:24.822Z,2.33
2024-04-14T02:18:51.511Z,2.00
2024-04-14T02:21:18.065Z,2.00
2024-04-14T02:23:44.646Z,2.55
2024-04-14T02:26:11.215Z,2.50
2024-04-14T02:28:37.754Z,1.80
2024-04-14T02:31:04.431Z,1.90
2024-04-14T02:33:31.068Z,2.13
2024-04-14T02:35:59.331Z,2.05
2024-04-14T02:38:26.274Z,1.90
2024-04-14T02:40:55.862Z,1.92
2024-04-14T02:43:22.400Z,1.90
2024-04-14T02:45:49.090Z,2.13
2024-04-14T02:48:15.761Z,1.80
2024-04-14T02:50:42.379Z,1.70
2024-04-14T02:53:11.455Z,1.90
2024-04-14T02:55:38.330Z,1.77
2024-04-14T02:58:05.337Z,1.80
2024-04-14T03:00:31.955Z,1.27
2024-04-14T03:03:01.664Z,1.65
2024-04-14T03:05:28.472Z,1.90
2024-04-14T03:07:55.089Z,1.60
2024-04-14T03:10:22.242Z,1.40
2024-04-14T03:12:48.758Z,1.60
2024-04-14T03:15:15.347Z,2.33
2024-04-14T03:17:41.890Z,1.67
2024-04-14T03:20:11.877Z,1.70
2024-04-14T03:22:38.402Z,1.40
2024-04-14T03:25:05.128Z,1.52
2024-04-14T03:27:31.671Z,1.60
2024-04-14T03:29:58.196Z,1.42
2024-04-14T03:32:24.722Z,1.92
2024-04-14T03:34:54.504Z,1.40
2024-04-14T03:37:23.971Z,1.30
2024-04-14T03:39:50.586Z,1.58
2024-04-14T03:42:17.245Z,1.40
2024-04-14T03:44:43.749Z,1.85
2024-04-14T03:47:10.347Z,1.60
2024-04-14T03:49:36.869Z,1.10
2024-04-14T03:52:03.514Z,2.00
2024-04-14T03:54:30.091Z,1.08
2024-04-14T03:56:56.660Z,1.20
2024-04-14T03:59:23.258Z,1.80
2024-04-14T04:01:49.985Z,1.63
2024-04-14T04:04:16.665Z,1.20
2024-04-14T04:06:43.306Z,1.20
2024-04-14T04:09:09.833Z,2.13
2024-04-14T04:11:36.582Z,1.63
2024-04-14T04:14:03.236Z,1.30
2024-04-14T04:16:29.917Z,1.45
2024-04-14T04:19:04.829Z,1.50
2024-04-14T04:21:37.702Z,0.98
2024-04-14T04:24:04.409Z,0.95
2024-04-14T04:26:30.958Z,1.40
2024-04-14T04:29:00.568Z,2.65
2024-04-14T04:31:27.099Z,1.20
2024-04-14T04:33:53.704Z,1.50
2024-04-14T04:36:20.319Z,1.60
2024-04-14T04:38:46.860Z,1.40
2024-04-14T04:41:13.550Z,1.90
2024-04-14T04:43:40.497Z,1.60
2024-04-14T04:46:09.345Z,1.90
2024-04-14T04:48:36.296Z,1.52
2024-04-14T04:51:02.922Z,1.73
2024-04-14T04:53:29.429Z,1.30
2024-04-14T04:55:56.026Z,1.25
2024-04-14T04:58:23.131Z,1.33
2024-04-14T05:00:53.782Z,1.33
2024-04-14T05:03:24.328Z,1.58
2024-04-14T05:05:58.131Z,2.38
2024-04-14T05:08:24.861Z,1.40
2024-04-14T05:10:52.526Z,1.42
2024-04-14T05:13:19.114Z,1.48
2024-04-14T05:15:45.659Z,1.35
2024-04-14T05:18:12.392Z,1.67
2024-04-14T05:20:39.276Z,1.10
2024-04-14T05:23:06.302Z,1.02
2024-04-14T05:25:32.847Z,1.50
2024-04-14T05:27:59.477Z,1.30
2024-04-14T05:30:26.201Z,1.17
2024-04-14T05:32:53.335Z,2.00
2024-04-14T05:35:19.849Z,1.48
2024-04-14T05:37:46.351Z,1.50
2024-04-14T05:40:12.885Z,1.40
2024-04-14T05:42:39.437Z,1.20
2024-04-14T05:45:08.529Z,1.75
2024-04-14T05:47:35.177Z,1.63
2024-04-14T05:50:02.335Z,1.40
2024-04-14T05:52:29.096Z,0.98
2024-04-14T05:57:22.159Z,1.08
2024-04-14T05:59:48.676Z,1.20
2024-04-14T06:02:16.224Z,1.20
2024-04-14T06:04:42.782Z,1.20
2024-04-14T06:07:09.377Z,1.50
2024-04-14T06:09:35.976Z,1.88
2024-04-14T06:12:02.629Z,1.70
2024-04-14T06:14:29.281Z,1.27
2024-04-14T06:16:55.913Z,1.48
2024-04-14T06:19:22.512Z,1.52
2024-04-14T06:21:49.115Z,1.20
2024-04-14T06:24:15.732Z,1.40
2024-04-14T06:26:42.297Z,1.35
2024-04-14T06:29:08.826Z,1.40
2024-04-14T06:31:35.398Z,1.30
2024-04-14T06:34:01.957Z,1.73
2024-04-14T06:36:31.544Z,1.10
2024-04-14T06:38:58.559Z,1.10
2024-04-14T06:41:25.346Z,1.60
2024-04-14T06:43:51.871Z,1.42
2024-04-14T06:46:18.433Z,1.70
2024-04-14T06:48:44.978Z,1.70
2024-04-14T06:51:11.527Z,2.53
2024-04-14T06:53:40.323Z,1.85
2024-04-14T06:56:07.408Z,1.67
2024-04-14T06:58:37.437Z,1.60
2024-04-14T07:01:04.210Z,1.42
2024-04-14T07:03:30.898Z,1.50
2024-04-14T07:05:57.567Z,1.33
2024-04-14T07:08:24.130Z,1.60
2024-04-14T07:10:53.659Z,1.58
2024-04-14T07:13:20.197Z,1.55
2024-04-14T07:15:46.827Z,1.83
2024-04-14T07:18:15.260Z,1.63
2024-04-14T07:20:41.916Z,1.52
2024-04-14T07:23:08.515Z,1.48
2024-04-14T07:25:35.053Z,1.58
2024-04-14T07:28:03.687Z,2.10
2024-04-14T07:30:30.351Z,2.83
2024-04-14T07:32:57.117Z,2.03
2024-04-14T07:35:23.711Z,2.15
2024-04-14T07:37:50.272Z,1.98
2024-04-14T07:40:16.880Z,1.58
2024-04-14T07:42:43.542Z,1.80
2024-04-14T07:45:14.547Z,1.60
2024-04-14T07:47:44.179Z,2.30
2024-04-14T07:50:11.428Z,1.63
2024-04-14T07:52:37.987Z,1.85
2024-04-14T07:55:04.650Z,1.73
2024-04-14T07:57:31.354Z,1.65
2024-04-14T07:59:57.888Z,2.25
2024-04-14T08:02:27.369Z,1.58
2024-04-14T08:04:54.083Z,2.22
2024-04-14T08:07:20.722Z,2.08
2024-04-14T08:09:47.404Z,2.33
2024-04-14T08:12:14.355Z,2.47
2024-04-14T08:14:40.946Z,1.88
2024-04-14T08:17:07.494Z,1.80
2024-04-14T08:19:33.999Z,1.85
2024-04-14T08:22:00.606Z,1.80
2024-04-14T08:24:27.283Z,2.38
2024-04-14T08:26:53.800Z,1.73
2024-04-14T08:29:20.481Z,1.92
2024-04-14T08:31:47.054Z,2.58
2024-04-14T08:34:13.683Z,2.88
2024-04-14T08:36:40.445Z,2.30
2024-04-14T08:39:06.983Z,2.10
2024-04-14T08:41:35.261Z,1.92
2024-04-14T08:44:02.068Z,2.08
2024-04-14T08:46:29.419Z,1.40
2024-04-14T08:48:56.608Z,1.75
2024-04-14T08:51:23.187Z,1.70
2024-04-14T08:53:50.936Z,1.50
2024-04-14T08:56:17.714Z,1.70
2024-04-14T08:58:45.850Z,2.22
2024-04-14T09:01:12.432Z,1.95
2024-04-14T09:03:39.146Z,2.10
2024-04-14T09:06:09.898Z,2.05
2024-04-14T09:08:37.230Z,1.65
2024-04-14T09:11:30.300Z,1.65
2024-04-14T09:13:55.085Z,2.05
2024-04-14T09:16:21.939Z,2.00
2024-04-14T09:18:48.569Z,2.10
2024-04-14T09:21:15.155Z,2.45
2024-04-14T09:23:41.733Z,1.90
2024-04-14T09:26:08.338Z,2.50
2024-04-14T09:28:34.867Z,1.70
2024-04-14T09:31:01.880Z,1.65
2024-04-14T09:33:28.551Z,2.40
2024-04-14T09:35:55.232Z,1.83
2024-04-14T09:38:24.369Z,1.63
2024-04-14T09:40:51.028Z,1.33
2024-04-14T09:43:19.808Z,2.00
2024-04-14T09:45:47.329Z,1.30
2024-04-14T09:48:14.833Z,1.20
2024-04-14T09:50:43.686Z,1.80
2024-04-14T09:53:11.251Z,1.63
2024-04-14T09:55:40.974Z,2.03
2024-04-14T09:58:07.973Z,1.77
2024-04-14T10:00:34.905Z,1.30
2024-04-14T10:03:03.328Z,1.40
2024-04-14T10:05:30.038Z,1.48
2024-04-14T10:08:03.029Z,2.28
2024-04-14T10:10:29.576Z,1.70
2024-04-14T10:12:57.190Z,2.13
2024-04-14T10:15:25.450Z,1.75
2024-04-14T10:18:11.352Z,1.98
2024-04-14T10:20:44.095Z,1.50
2024-04-14T10:23:18.949Z,1.50
2024-04-14T10:25:49.457Z,1.55
2024-04-14T10:28:16.786Z,1.77
2024-04-14T10:30:44.363Z,1.80
2024-04-14T10:33:19.730Z,2.15
2024-04-14T10:35:46.519Z,1.90
2024-04-14T10:38:22.124Z,1.73
2024-04-14T10:40:49.527Z,1.77
2024-04-14T10:43:17.293Z,1.60
2024-04-14T10:45:43.819Z,1.83
2024-04-14T10:48:10.501Z,1.83
2024-04-14T12:38:30.713Z,1.45
2024-04-14T12:40:57.221Z,1.40
2024-04-14T12:43:23.758Z,1.77
2024-04-14T12:45:50.468Z,1.38
2024-04-14T12:48:19.309Z,1.30
2024-04-14T12:50:49.467Z,1.30
2024-04-14T12:53:19.474Z,2.30
2024-04-14T12:55:46.086Z,1.40
2024-04-14T12:58:13.540Z,1.95
2024-04-14T13:00:40.573Z,1.50
2024-04-14T13:03:09.884Z,1.45
2024-04-14T13:05:36.697Z,1.38
2024-04-14T13:08:03.272Z,1.55
2024-04-14T13:10:29.816Z,1.05
2024-04-14T13:12:56.393Z,1.45
2024-04-14T13:15:26.354Z,1.50
2024-04-14T13:17:53.029Z,1.85
2024-04-14T13:20:20.345Z,1.58
2024-04-14T13:22:46.846Z,1.40
2024-04-14T13:25:13.604Z,1.90
2024-04-14T13:27:40.329Z,1.85
2024-04-14T13:30:10.124Z,1.75
2024-04-14T13:32:36.844Z,1.90
2024-04-14T13:35:03.439Z,1.67
2024-04-14T13:37:29.958Z,1.70
2024-04-14T13:39:56.672Z,1.60
2024-04-14T13:42:23.263Z,1.90
2024-04-14T13:44:49.794Z,2.40
2024-04-14T13:47:16.331Z,1.70
2024-04-14T13:49:45.104Z,1.90
2024-04-14T13:52:12.411Z,2.35
2024-04-14T13:54:38.992Z,1.52
2024-04-14T13:57:07.843Z,2.08
2024-04-14T13:59:37.015Z,1.75
2024-04-14T14:02:03.690Z,1.60
2024-04-14T14:04:30.274Z,1.60
2024-04-14T14:06:56.915Z,1.70
2024-04-14T14:09:24.330Z,1.50
2024-04-14T14:11:50.915Z,1.60
2024-04-14T14:14:17.569Z,1.50
2024-04-14T14:16:44.129Z,1.25
2024-04-14T14:19:10.903Z,1.35
2024-04-14T14:21:37.508Z,1.27
2024-04-14T14:24:09.813Z,1.38
2024-04-14T14:26:36.403Z,1.00
2024-04-14T14:29:03.116Z,1.00
2024-04-14T14:31:29.650Z,1.30
2024-04-14T14:34:14.943Z,1.50
2024-04-14T14:36:41.616Z,1.45
2024-04-14T14:39:08.235Z,1.30
2024-04-14T14:41:35.076Z,1.10
2024-04-14T14:44:01.610Z,1.58
2024-04-14T14:46:28.239Z,1.60
2024-04-14T14:48:55.831Z,1.67
2024-04-14T14:51:24.135Z,1.77
2024-04-14T14:53:50.686Z,1.50
2024-04-14T14:56:17.237Z,1.70
2024-04-14T14:58:43.835Z,1.80
2024-04-14T15:01:11.280Z,1.48
2024-04-14T15:03:38.719Z,1.67
2024-04-14T15:06:06.730Z,1.20
2024-04-14T15:08:34.677Z,1.08
2024-04-14T15:11:01.285Z,1.30
2024-04-14T15:13:27.881Z,1.30
2024-04-14T15:15:55.215Z,1.42
2024-04-14T15:18:22.329Z,1.20
2024-04-14T15:20:49.207Z,1.30
2024-04-14T15:23:15.833Z,1.90
2024-04-14T15:25:42.999Z,1.27
2024-04-14T15:28:15.311Z,1.70
2024-04-14T15:30:49.506Z,1.10
2024-04-14T15:33:16.270Z,1.38
2024-04-14T15:35:42.821Z,1.10
2024-04-14T15:38:09.374Z,1.40
2024-04-14T15:40:38.672Z,1.95
2024-04-14T15:43:05.894Z,1.40
2024-04-14T15:45:32.728Z,1.17
2024-04-14T15:48:00.807Z,1.33
2024-04-14T15:50:27.470Z,1.30
2024-04-14T15:52:54.041Z,1.33
2024-04-14T15:55:20.687Z,1.40
2024-04-14T15:57:47.308Z,1.20
2024-04-14T16:00:17.020Z,1.35
2024-04-14T16:02:46.519Z,1.63
2024-04-14T16:05:13.121Z,1.75
2024-04-14T16:07:39.700Z,1.65
2024-04-14T16:10:07.572Z,1.77
2024-04-14T16:12:34.290Z,1.88
2024-04-14T16:15:01.063Z,1.40
2024-04-14T16:17:27.724Z,1.42
2024-04-14T16:19:54.561Z,1.67
2024-04-14T16:22:22.983Z,2.10
2024-04-14T16:24:49.549Z,1.08
2024-04-14T16:27:16.142Z,1.15
2024-04-14T16:29:43.400Z,0.90
2024-04-14T16:32:10.089Z,1.65
2024-04-14T16:34:36.670Z,1.35
2024-04-14T16:37:03.271Z,1.17
2024-04-14T16:39:30.678Z,1.25
2024-04-14T16:41:57.567Z,1.30
2024-04-14T16:44:24.186Z,1.17
2024-04-14T16:46:50.744Z,1.27
2024-04-14T16:49:17.393Z,1.67
2024-04-14T16:51:44.596Z,1.20
2024-04-14T16:54:11.250Z,1.30
2024-04-14T16:56:37.807Z,1.60
2024-04-14T16:59:04.329Z,1.15
2024-04-14T17:01:33.326Z,1.23
2024-04-14T17:04:00.103Z,1.08
2024-04-14T17:06:26.754Z,1.45
2024-04-14T17:08:56.692Z,1.13
2024-04-14T17:11:23.309Z,1.20
2024-04-14T17:13:49.874Z,1.55
2024-04-14T17:16:16.554Z,1.08
2024-04-14T17:18:46.391Z,1.27
2024-04-14T17:21:13.052Z,1.15
2024-04-14T17:23:39.634Z,1.30
2024-04-14T17:26:06.378Z,1.52
2024-04-14T17:28:32.937Z,1.05
2024-04-14T17:30:59.510Z,1.23
2024-04-14T17:33:26.390Z,1.25
2024-04-14T17:35:54.731Z,0.93
2024-04-14T17:38:21.410Z,0.82
2024-04-14T17:40:47.966Z,1.05
2024-04-14T17:43:14.564Z,1.30
2024-04-14T17:45:41.265Z,0.98
2024-04-14T17:48:09.263Z,1.08
2024-04-14T17:50:35.919Z,1.17
2024-04-14T17:53:02.505Z,1.10
2024-04-14T17:55:29.055Z,1.15
2024-04-14T17:57:55.730Z,1.10
2024-04-14T18:00:22.349Z,1.05
2024-04-14T18:02:48.989Z,0.90
2024-04-14T18:05:15.693Z,0.90
2024-04-14T18:07:42.315Z,0.70
2024-04-14T18:10:08.907Z,1.10
2024-04-14T18:12:35.629Z,0.98
2024-04-14T18:15:02.247Z,0.90
2024-04-14T18:17:28.873Z,1.52
2024-04-14T18:19:55.434Z,0.90
2024-04-14T18:22:22.033Z,0.90
2024-04-14T18:24:48.674Z,1.00
2024-04-14T18:27:16.067Z,1.10
2024-04-14T18:29:42.750Z,1.33
2024-04-14T18:32:09.351Z,0.90
2024-04-14T18:34:39.251Z,1.00
2024-04-14T18:37:08.245Z,1.00
2024-04-14T18:39:37.820Z,1.25
2024-04-14T18:42:04.692Z,0.98
2024-04-14T18:44:31.225Z,0.88
2024-04-14T18:47:00.827Z,0.63
2024-04-14T18:49:27.539Z,1.00
2024-04-14T18:51:54.139Z,0.95
2024-04-14T18:54:20.746Z,0.73
2024-04-14T18:56:47.286Z,0.65
2024-04-14T18:59:13.874Z,0.98
2024-04-14T19:01:40.599Z,0.80
2024-04-14T19:04:07.362Z,0.77
2024-04-14T19:06:33.973Z,0.55
2024-04-14T19:09:00.556Z,0.98
2024-04-14T19:11:27.172Z,0.70
2024-04-14T19:13:53.746Z,0.70
2024-04-14T19:16:21.390Z,0.70
2024-04-14T19:18:48.099Z,0.90
2024-04-14T19:21:14.743Z,0.80
2024-04-14T19:23:41.380Z,0.65
2024-04-14T19:26:13.229Z,0.60
2024-04-14T19:28:39.826Z,0.80
2024-04-14T19:31:06.751Z,0.60
2024-04-14T19:33:33.463Z,0.65
2024-04-14T19:36:01.037Z,0.60
2024-04-14T19:38:32.494Z,0.82
2024-04-14T19:41:00.973Z,0.60
2024-04-14T19:43:29.059Z,0.80
2024-04-14T19:45:59.775Z,0.70
2024-04-14T19:50:55.273Z,0.63
2024-04-14T19:53:27.041Z,0.77
2024-04-14T19:55:53.681Z,0.70
2024-04-14T19:58:20.319Z,0.50
2024-04-14T20:00:46.914Z,0.82
2024-04-14T20:03:13.489Z,0.50
2024-04-14T20:05:40.485Z,0.55
2024-04-14T20:08:07.426Z,0.60
2024-04-14T20:10:34.106Z,0.75
2024-04-14T20:13:00.776Z,0.57
2024-04-14T20:15:27.346Z,0.30
2024-04-14T20:17:54.058Z,0.40
2024-04-14T20:20:20.803Z,0.40
2024-04-14T20:22:47.563Z,0.40
2024-04-14T20:25:14.553Z,0.40
2024-04-14T20:27:44.192Z,0.32
2024-04-14T20:30:11.318Z,0.30
2024-04-14T20:32:38.057Z,0.30
2024-04-14T20:35:04.941Z,0.40
2024-04-14T20:37:31.505Z,0.57
2024-04-14T20:39:58.260Z,0.30
2024-04-14T20:42:24.923Z,0.30
2024-04-14T20:44:54.259Z,0.40
2024-04-14T20:47:22.016Z,0.47
2024-04-14T20:49:50.053Z,0.50
2024-04-14T20:52:16.662Z,0.35
2024-04-14T20:54:43.589Z,0.70
2024-04-14T20:57:10.349Z,0.40
2024-04-14T20:59:37.025Z,0.35
2024-04-14T21:02:03.732Z,0.40
2024-04-14T21:04:39.314Z,0.30
2024-04-14T21:07:09.821Z,0.43
2024-04-14T21:09:36.500Z,0.30
2024-04-14T21:12:06.108Z,0.40
2024-04-14T21:14:32.731Z,0.40
2024-04-14T21:16:59.278Z,0.30
2024-04-14T21:19:25.970Z,0.40
2024-04-14T21:21:52.540Z,0.47
2024-04-14T21:24:19.587Z,0.50
2024-04-14T21:26:46.114Z,0.30
2024-04-14T21:29:14.142Z,0.40
2024-04-14T21:31:42.161Z,0.40
2024-04-14T21:34:08.844Z,0.70
2024-04-14T21:36:35.604Z,0.38
2024-04-14T21:39:02.171Z,0.70
2024-04-14T21:41:28.759Z,0.50
2024-04-14T21:43:55.543Z,0.40
2024-04-14T21:46:24.423Z,0.50
2024-04-14T21:48:51.019Z,0.40
2024-04-14T21:51:17.562Z,0.45
2024-04-14T21:53:44.093Z,0.40
2024-04-14T21:56:10.662Z,0.35
2024-04-14T21:58:38.623Z,0.30
2024-04-14T22:01:17.601Z,0.50
2024-04-14T22:03:45.492Z,0.30
2024-04-14T22:06:12.479Z,0.35
2024-04-14T22:08:39.048Z,0.30
2024-04-14T22:11:08.715Z,0.30
2024-04-14T22:13:38.971Z,0.20
2024-04-14T22:16:05.917Z,0.30
2024-04-14T22:18:32.712Z,0.30
2024-04-14T22:20:59.763Z,0.20
2024-04-14T22:23:26.419Z,0.30
2024-04-14T22:25:53.113Z,0.38
2024-04-14T22:28:19.997Z,0.20
2024-04-14T22:30:49.506Z,0.20
2024-04-14T22:33:16.316Z,0.20
2024-04-14T22:35:42.991Z,0.30
2024-04-14T22:38:09.575Z,0.20
2024-04-14T22:40:36.119Z,0.20
2024-04-14T22:43:02.764Z,0.30
2024-04-14T22:45:29.338Z,0.20
2024-04-14T22:47:57.242Z,0.30
2024-04-14T22:50:23.829Z,0.20
2024-04-14T22:52:50.345Z,0.20
2024-04-14T22:55:16.940Z,0.20
2024-04-14T22:57:43.539Z,0.20
2024-04-14T23:00:12.079Z,0.28
2024-04-14T23:02:38.899Z,0.20
2024-04-14T23:05:09.123Z,0.30
2024-04-14T23:07:35.690Z,0.30
2024-04-14T23:10:02.338Z,0.20
2024-04-14T23:12:28.876Z,0.20
2024-04-14T23:14:55.492Z,0.22
2024-04-14T23:17:22.176Z,0.20
2024-04-14T23:19:49.756Z,0.30
2024-04-14T23:22:16.474Z,0.20
2024-04-14T23:24:43.102Z,0.20
2024-04-14T23:27:09.736Z,0.20
2024-04-14T23:29:36.308Z,0.30
2024-04-14T23:32:03.019Z,0.20
2024-04-14T23:34:29.589Z,0.20
2024-04-14T23:36:57.081Z,0.20
2024-04-14T23:39:23.710Z,0.30
2024-04-14T23:41:50.397Z,0.30
2024-04-14T23:44:17.031Z,0.30
2024-04-14T23:46:43.577Z,0.30
2024-04-14T23:49:10.246Z,0.30
2024-04-14T23:51:36.899Z,0.20
2024-04-14T23:54:03.524Z,0.20
2024-04-14T23:56:30.038Z,0.30
2024-04-14T23:58:56.545Z,0.20
